sensor_id;sensor_type;location;lat;lon;timestamp;pressure;altitude;pressure_sealevel;temperature;humidity
76464;BME280;65301;46.666;20.110;2022-11-25T00:01:28;100876.13;;;2.28;88.90
76464;BME280;65301;46.666;20.110;2022-11-25T00:04:30;100875.88;;;2.30;88.92
76464;BME280;65301;46.666;20.110;2022-11-25T00:07:37;100878.72;;;2.28;88.78
76464;BME280;65301;46.666;20.110;2022-11-25T00:10:39;100875.81;;;2.25;89.17
76464;BME280;65301;46.666;20.110;2022-11-25T00:13:42;100878.91;;;2.22;89.40
76464;BME280;65301;46.666;20.110;2022-11-25T00:16:44;100881.47;;;2.17;89.41
76464;BME280;65301;46.666;20.110;2022-11-25T00:19:49;100890.97;;;2.28;89.43
76464;BME280;65301;46.666;20.110;2022-11-25T00:22:51;100897.66;;;2.40;88.63
76464;BME280;65301;46.666;20.110;2022-11-25T00:25:52;100880.69;;;2.38;88.32
76464;BME280;65301;46.666;20.110;2022-11-25T00:28:57;100896.19;;;2.49;88.50
76464;BME280;65301;46.666;20.110;2022-11-25T00:31:59;100904.88;;;2.55;87.22
76464;BME280;65301;46.666;20.110;2022-11-25T00:35:01;100901.28;;;2.61;86.93
76464;BME280;65301;46.666;20.110;2022-11-25T00:38:03;100904.63;;;2.56;87.69
76464;BME280;65301;46.666;20.110;2022-11-25T00:41:04;100904.00;;;2.49;88.09
76464;BME280;65301;46.666;20.110;2022-11-25T00:44:25;100913.72;;;2.54;87.66
76464;BME280;65301;46.666;20.110;2022-11-25T00:47:42;100916.31;;;2.54;87.08
76464;BME280;65301;46.666;20.110;2022-11-25T00:50:44;100920.94;;;2.47;87.60
76464;BME280;65301;46.666;20.110;2022-11-25T00:53:46;100921.25;;;2.50;87.31
76464;BME280;65301;46.666;20.110;2022-11-25T00:56:48;100929.06;;;2.50;87.83
76464;BME280;65301;46.666;20.110;2022-11-25T00:59:50;100922.50;;;2.48;88.03
76464;BME280;65301;46.666;20.110;2022-11-25T01:02:53;100929.28;;;2.49;88.14
76464;BME280;65301;46.666;20.110;2022-11-25T01:05:54;100928.81;;;2.52;86.54
76464;BME280;65301;46.666;20.110;2022-11-25T01:09:01;100929.41;;;2.37;87.14
76464;BME280;65301;46.666;20.110;2022-11-25T01:12:03;100930.53;;;2.25;86.63
76464;BME280;65301;46.666;20.110;2022-11-25T01:15:06;100929.13;;;2.17;87.73
76464;BME280;65301;46.666;20.110;2022-11-25T01:18:08;100925.28;;;2.03;88.35
76464;BME280;65301;46.666;20.110;2022-11-25T01:21:15;100929.16;;;2.00;87.85
76464;BME280;65301;46.666;20.110;2022-11-25T01:24:17;100924.34;;;2.09;87.08
76464;BME280;65301;46.666;20.110;2022-11-25T01:27:18;100929.22;;;2.06;87.24
76464;BME280;65301;46.666;20.110;2022-11-25T01:30:20;100924.91;;;1.94;87.80
76464;BME280;65301;46.666;20.110;2022-11-25T01:33:22;100928.22;;;1.90;87.71
76464;BME280;65301;46.666;20.110;2022-11-25T01:36:24;100929.63;;;1.81;88.28
76464;BME280;65301;46.666;20.110;2022-11-25T01:39:26;100925.22;;;1.81;87.50
76464;BME280;65301;46.666;20.110;2022-11-25T01:42:33;100935.63;;;1.81;87.25
76464;BME280;65301;46.666;20.110;2022-11-25T01:45:36;100926.72;;;1.77;88.29
76464;BME280;65301;46.666;20.110;2022-11-25T01:48:41;100926.19;;;1.75;88.59
76464;BME280;65301;46.666;20.110;2022-11-25T01:51:51;100926.41;;;1.74;88.43
76464;BME280;65301;46.666;20.110;2022-11-25T01:54:57;100927.19;;;1.74;88.42
76464;BME280;65301;46.666;20.110;2022-11-25T01:58:16;100929.56;;;1.76;87.30
76464;BME280;65301;46.666;20.110;2022-11-25T02:01:18;100941.09;;;1.80;86.68
76464;BME280;65301;46.666;20.110;2022-11-25T02:04:25;100939.31;;;1.69;86.90
76464;BME280;65301;46.666;20.110;2022-11-25T02:07:33;100933.50;;;1.62;87.49
76464;BME280;65301;46.666;20.110;2022-11-25T02:10:36;100945.75;;;1.61;87.51
76464;BME280;65301;46.666;20.110;2022-11-25T02:13:39;100938.94;;;1.60;88.27
76464;BME280;65301;46.666;20.110;2022-11-25T02:16:41;100938.94;;;1.60;87.53
76464;BME280;65301;46.666;20.110;2022-11-25T02:19:57;100949.50;;;1.54;86.18
76464;BME280;65301;46.666;20.110;2022-11-25T02:23:16;100951.31;;;1.53;87.65
76464;BME280;65301;46.666;20.110;2022-11-25T02:26:20;100961.28;;;1.56;86.70
76464;BME280;65301;46.666;20.110;2022-11-25T02:29:22;100959.28;;;1.47;85.70
76464;BME280;65301;46.666;20.110;2022-11-25T02:32:24;100959.31;;;1.35;87.55
76464;BME280;65301;46.666;20.110;2022-11-25T02:35:34;100968.31;;;1.27;87.67
76464;BME280;65301;46.666;20.110;2022-11-25T02:39:08;100965.38;;;1.24;87.84
76464;BME280;65301;46.666;20.110;2022-11-25T02:42:10;100966.41;;;1.23;88.31
76464;BME280;65301;46.666;20.110;2022-11-25T02:45:14;100970.13;;;1.27;88.78
76464;BME280;65301;46.666;20.110;2022-11-25T02:48:19;100963.81;;;1.23;88.03
76464;BME280;65301;46.666;20.110;2022-11-25T02:51:31;100965.84;;;1.21;86.86
76464;BME280;65301;46.666;20.110;2022-11-25T02:54:32;100959.44;;;1.12;87.98
76464;BME280;65301;46.666;20.110;2022-11-25T02:57:34;100967.47;;;1.10;88.29
76464;BME280;65301;46.666;20.110;2022-11-25T03:00:37;100968.84;;;1.01;88.74
76464;BME280;65301;46.666;20.110;2022-11-25T03:03:39;100962.63;;;1.02;88.39
76464;BME280;65301;46.666;20.110;2022-11-25T03:06:41;100959.03;;;1.03;87.86
76464;BME280;65301;46.666;20.110;2022-11-25T03:09:42;100970.44;;;1.02;87.99
76464;BME280;65301;46.666;20.110;2022-11-25T03:12:44;100982.31;;;0.98;89.46
76464;BME280;65301;46.666;20.110;2022-11-25T03:15:45;100977.22;;;1.03;88.19
76464;BME280;65301;46.666;20.110;2022-11-25T03:18:47;100984.34;;;1.08;87.81
76464;BME280;65301;46.666;20.110;2022-11-25T03:21:50;100988.78;;;0.96;87.56
76464;BME280;65301;46.666;20.110;2022-11-25T03:24:51;100992.28;;;0.90;88.15
76464;BME280;65301;46.666;20.110;2022-11-25T03:27:53;100998.63;;;0.82;89.14
76464;BME280;65301;46.666;20.110;2022-11-25T03:30:54;101007.00;;;0.84;88.90
76464;BME280;65301;46.666;20.110;2022-11-25T03:33:56;101006.78;;;0.86;89.05
76464;BME280;65301;46.666;20.110;2022-11-25T03:36:58;101013.56;;;0.87;88.80
76464;BME280;65301;46.666;20.110;2022-11-25T03:39:59;101014.34;;;0.87;88.77
76464;BME280;65301;46.666;20.110;2022-11-25T03:43:01;101014.78;;;0.96;90.70
76464;BME280;65301;46.666;20.110;2022-11-25T03:46:03;101018.59;;;1.05;91.27
76464;BME280;65301;46.666;20.110;2022-11-25T03:49:05;101016.50;;;1.18;90.69
76464;BME280;65301;46.666;20.110;2022-11-25T03:52:07;101015.59;;;1.24;87.65
76464;BME280;65301;46.666;20.110;2022-11-25T03:55:09;101015.06;;;1.22;88.02
76464;BME280;65301;46.666;20.110;2022-11-25T03:58:13;101023.56;;;1.06;87.91
76464;BME280;65301;46.666;20.110;2022-11-25T04:01:15;101028.66;;;1.01;88.70
76464;BME280;65301;46.666;20.110;2022-11-25T04:04:16;101027.00;;;0.95;88.60
76464;BME280;65301;46.666;20.110;2022-11-25T04:07:18;101032.88;;;0.91;89.21
76464;BME280;65301;46.666;20.110;2022-11-25T04:10:22;101032.88;;;0.91;89.21
76464;BME280;65301;46.666;20.110;2022-11-25T04:13:23;101031.50;;;1.00;88.67
76464;BME280;65301;46.666;20.110;2022-11-25T04:16:25;101030.00;;;1.04;89.25
76464;BME280;65301;46.666;20.110;2022-11-25T04:19:27;101035.78;;;0.94;89.38
76464;BME280;65301;46.666;20.110;2022-11-25T04:22:29;101042.72;;;0.89;90.02
76464;BME280;65301;46.666;20.110;2022-11-25T04:25:31;101047.25;;;0.93;89.90
76464;BME280;65301;46.666;20.110;2022-11-25T04:28:33;101043.94;;;0.98;88.83
76464;BME280;65301;46.666;20.110;2022-11-25T04:31:35;101047.78;;;0.95;89.43
76464;BME280;65301;46.666;20.110;2022-11-25T04:34:38;101043.38;;;0.96;89.20
76464;BME280;65301;46.666;20.110;2022-11-25T04:37:40;101052.75;;;1.08;88.65
76464;BME280;65301;46.666;20.110;2022-11-25T04:40:41;101050.38;;;1.07;87.23
76464;BME280;65301;46.666;20.110;2022-11-25T04:43:43;101056.25;;;1.02;88.02
76464;BME280;65301;46.666;20.110;2022-11-25T04:46:45;101055.59;;;0.95;89.15
76464;BME280;65301;46.666;20.110;2022-11-25T04:49:46;101057.41;;;0.95;87.63
76464;BME280;65301;46.666;20.110;2022-11-25T04:52:48;101053.44;;;0.92;87.88
76464;BME280;65301;46.666;20.110;2022-11-25T04:55:50;101055.84;;;0.94;88.47
76464;BME280;65301;46.666;20.110;2022-11-25T04:58:51;101058.88;;;0.91;87.78
76464;BME280;65301;46.666;20.110;2022-11-25T05:02:20;101072.47;;;0.81;89.50
76464;BME280;65301;46.666;20.110;2022-11-25T05:05:23;101076.75;;;0.76;88.57
76464;BME280;65301;46.666;20.110;2022-11-25T05:08:25;101084.66;;;0.81;88.71
76464;BME280;65301;46.666;20.110;2022-11-25T05:11:26;101094.38;;;0.74;87.95
76464;BME280;65301;46.666;20.110;2022-11-25T05:14:28;101093.59;;;0.73;89.89
76464;BME280;65301;46.666;20.110;2022-11-25T05:17:30;101098.22;;;0.71;90.02
76464;BME280;65301;46.666;20.110;2022-11-25T05:20:33;101101.63;;;0.72;89.72
76464;BME280;65301;46.666;20.110;2022-11-25T05:23:34;101120.16;;;0.75;90.57
76464;BME280;65301;46.666;20.110;2022-11-25T05:26:36;101121.84;;;0.81;89.76
76464;BME280;65301;46.666;20.110;2022-11-25T05:29:38;101122.31;;;0.78;89.16
76464;BME280;65301;46.666;20.110;2022-11-25T05:32:39;101137.22;;;0.83;88.63
76464;BME280;65301;46.666;20.110;2022-11-25T05:35:41;101146.63;;;0.84;88.65
76464;BME280;65301;46.666;20.110;2022-11-25T05:38:43;101148.41;;;0.83;89.27
76464;BME280;65301;46.666;20.110;2022-11-25T05:41:45;101152.81;;;0.83;89.77
76464;BME280;65301;46.666;20.110;2022-11-25T05:44:46;101159.19;;;0.87;88.04
76464;BME280;65301;46.666;20.110;2022-11-25T05:47:48;101160.38;;;0.73;88.36
76464;BME280;65301;46.666;20.110;2022-11-25T05:50:50;101163.56;;;0.75;89.54
76464;BME280;65301;46.666;20.110;2022-11-25T05:53:55;101161.19;;;0.85;89.05
76464;BME280;65301;46.666;20.110;2022-11-25T05:56:57;101174.06;;;0.80;88.57
76464;BME280;65301;46.666;20.110;2022-11-25T05:59:58;101171.81;;;0.72;88.93
76464;BME280;65301;46.666;20.110;2022-11-25T06:03:00;101174.53;;;0.65;89.68
76464;BME280;65301;46.666;20.110;2022-11-25T06:06:03;101177.69;;;0.67;88.71
76464;BME280;65301;46.666;20.110;2022-11-25T06:09:11;101186.50;;;0.78;88.34
76464;BME280;65301;46.666;20.110;2022-11-25T06:12:18;101194.22;;;0.84;88.61
76464;BME280;65301;46.666;20.110;2022-11-25T06:15:23;101201.56;;;0.87;87.64
76464;BME280;65301;46.666;20.110;2022-11-25T06:18:43;101203.47;;;0.92;86.61
76464;BME280;65301;46.666;20.110;2022-11-25T06:21:46;101205.75;;;1.00;87.81
76464;BME280;65301;46.666;20.110;2022-11-25T06:25:09;101206.88;;;0.92;87.47
76464;BME280;65301;46.666;20.110;2022-11-25T06:28:12;101204.50;;;0.91;86.95
76464;BME280;65301;46.666;20.110;2022-11-25T06:31:21;101216.84;;;0.95;87.76
76464;BME280;65301;46.666;20.110;2022-11-25T06:34:30;101211.63;;;1.18;86.06
76464;BME280;65301;46.666;20.110;2022-11-25T06:37:41;101220.22;;;1.19;85.72
76464;BME280;65301;46.666;20.110;2022-11-25T06:40:49;101228.03;;;1.19;85.24
76464;BME280;65301;46.666;20.110;2022-11-25T06:44:07;101240.72;;;1.15;85.51
76464;BME280;65301;46.666;20.110;2022-11-25T06:48:13;101246.47;;;1.06;85.02
76464;BME280;65301;46.666;20.110;2022-11-25T07:05:27;101259.78;;;0.86;88.50
76464;BME280;65301;46.666;20.110;2022-11-25T07:08:53;101264.44;;;0.84;88.35
76464;BME280;65301;46.666;20.110;2022-11-25T07:12:06;101266.91;;;0.91;87.58
76464;BME280;65301;46.666;20.110;2022-11-25T07:15:12;101265.78;;;0.87;87.80
76464;BME280;65301;46.666;20.110;2022-11-25T07:18:20;101264.22;;;0.97;88.83
76464;BME280;65301;46.666;20.110;2022-11-25T07:21:54;101273.88;;;1.20;87.74
76464;BME280;65301;46.666;20.110;2022-11-25T07:25:41;101275.22;;;1.34;88.03
76464;BME280;65301;46.666;20.110;2022-11-25T07:37:40;101273.38;;;1.81;86.93
76464;BME280;65301;46.666;20.110;2022-11-25T07:41:13;101270.28;;;2.07;86.41
76464;BME280;65301;46.666;20.110;2022-11-25T07:44:26;101284.75;;;2.15;85.73
76464;BME280;65301;46.666;20.110;2022-11-25T07:47:49;101293.81;;;2.52;85.28
76464;BME280;65301;46.666;20.110;2022-11-25T07:55:21;101300.22;;;4.16;81.35
76464;BME280;65301;46.666;20.110;2022-11-25T08:08:03;101305.00;;;5.67;71.47
76464;BME280;65301;46.666;20.110;2022-11-25T08:11:37;101311.97;;;5.15;73.11
76464;BME280;65301;46.666;20.110;2022-11-25T08:15:06;101319.69;;;4.73;75.72
76464;BME280;65301;46.666;20.110;2022-11-25T08:18:33;101325.75;;;4.52;77.02
76464;BME280;65301;46.666;20.110;2022-11-25T08:21:45;101329.31;;;4.41;77.86
76464;BME280;65301;46.666;20.110;2022-11-25T08:25:21;101330.03;;;4.15;79.52
76464;BME280;65301;46.666;20.110;2022-11-25T08:29:18;101342.47;;;4.07;80.32
76464;BME280;65301;46.666;20.110;2022-11-25T08:32:31;101338.50;;;4.05;81.62
76464;BME280;65301;46.666;20.110;2022-11-25T08:36:07;101342.59;;;3.96;80.31
76464;BME280;65301;46.666;20.110;2022-11-25T08:40:08;101346.59;;;3.65;82.02
